createdAt,value
2023-12-15T06:16:34.914Z,5.60
2023-12-15T06:19:13.317Z,5.43
2023-12-15T06:21:47.024Z,5.90
2023-12-15T06:24:20.951Z,5.60
2023-12-15T06:26:54.384Z,5.83
2023-12-15T06:29:28.461Z,5.47
2023-12-15T06:32:02.300Z,5.70
2023-12-15T06:34:36.102Z,5.57
2023-12-15T06:37:10.119Z,5.80
2023-12-15T06:39:46.965Z,5.90
2023-12-15T06:42:22.345Z,5.60
2023-12-15T06:44:56.454Z,5.13
2023-12-15T06:47:31.777Z,5.50
2023-12-15T06:50:07.647Z,4.70
2023-12-15T06:52:42.208Z,5.00
2023-12-15T06:55:16.117Z,4.93
2023-12-15T06:57:54.039Z,5.03
2023-12-15T07:00:31.952Z,4.37
2023-12-15T07:03:05.568Z,4.87
2023-12-15T07:05:39.153Z,4.70
2023-12-15T07:08:12.887Z,4.33
2023-12-15T07:10:47.195Z,4.03
2023-12-15T07:13:20.860Z,4.30
2023-12-15T07:15:54.500Z,3.80
2023-12-15T07:18:27.984Z,3.80
2023-12-15T07:21:01.473Z,3.60
2023-12-15T07:23:38.142Z,3.57
2023-12-15T07:26:12.421Z,3.80
2023-12-15T07:28:47.576Z,3.50
2023-12-15T07:31:22.563Z,3.93
2023-12-15T07:33:56.291Z,4.60
2023-12-15T07:36:30.319Z,4.87
2023-12-15T07:39:03.959Z,4.80
2023-12-15T07:41:41.236Z,4.97
2023-12-15T07:44:15.001Z,4.87
2023-12-15T07:46:49.170Z,5.40
2023-12-15T07:49:23.514Z,5.30
2023-12-15T07:51:58.129Z,4.70
2023-12-15T07:54:33.303Z,5.20
2023-12-15T07:57:07.104Z,4.90
2023-12-15T07:59:41.176Z,5.17
2023-12-15T08:02:18.791Z,5.57
2023-12-15T08:04:52.587Z,4.80
2023-12-15T08:07:26.608Z,5.13
2023-12-15T08:10:00.471Z,5.20
2023-12-15T08:12:36.532Z,4.90
2023-12-15T08:15:10.621Z,5.10
2023-12-15T08:17:44.862Z,5.20
2023-12-15T08:20:18.842Z,5.33
2023-12-15T08:22:55.732Z,6.20
2023-12-15T08:25:34.216Z,6.47
2023-12-15T08:28:22.257Z,6.17
2023-12-15T08:31:13.840Z,6.57
2023-12-15T08:33:47.122Z,5.70
2023-12-15T08:36:23.593Z,6.83
2023-12-15T08:38:56.942Z,6.13
2023-12-15T08:41:30.011Z,6.80
2023-12-15T08:44:03.211Z,7.47
2023-12-15T08:46:36.635Z,8.07
2023-12-15T08:49:09.814Z,7.93
2023-12-15T08:51:42.867Z,7.20
2023-12-15T08:54:17.745Z,7.77
2023-12-15T08:56:51.177Z,7.50
2023-12-15T08:59:24.466Z,7.63
2023-12-15T09:01:57.546Z,7.60
2023-12-15T09:04:30.785Z,7.93
2023-12-15T09:07:04.293Z,8.07
2023-12-15T09:09:39.137Z,7.97
2023-12-15T09:28:08.593Z,6.50
2023-12-15T09:41:19.097Z,7.20
2023-12-15T09:43:52.268Z,6.40
2023-12-15T09:46:25.574Z,6.50
2023-12-15T09:48:58.600Z,7.10
2023-12-15T09:51:34.237Z,7.30
2023-12-15T09:54:07.403Z,7.43
2023-12-15T09:56:43.100Z,6.40
2023-12-15T09:59:17.721Z,6.67
2023-12-15T10:01:50.874Z,7.07
2023-12-15T10:04:23.888Z,6.83
2023-12-15T10:06:57.255Z,6.80
2023-12-15T10:09:30.228Z,6.67
2023-12-15T10:12:03.427Z,6.87
2023-12-15T10:14:38.434Z,6.67
2023-12-15T10:17:12.578Z,7.90
2023-12-15T10:19:45.665Z,7.37
2023-12-15T10:22:18.929Z,6.70
2023-12-15T10:24:51.877Z,7.03
2023-12-15T10:27:25.213Z,7.27
2023-12-15T10:29:58.297Z,6.80
2023-12-15T10:32:31.618Z,7.03
2023-12-15T10:35:05.567Z,7.43
2023-12-15T10:37:39.394Z,7.60
2023-12-15T10:40:13.457Z,6.37
2023-12-15T10:42:47.922Z,6.83
2023-12-15T13:14:10.852Z,4.97
2023-12-15T13:16:47.169Z,5.87
